sensor_id;sensor_type;location;lat;lon;timestamp;P1;durP1;ratioP1;P2;durP2;ratioP2
77214;SDS011;66210;53.282;9.864;2023-05-10T00:01:17;4.53;;;3.10;;
77214;SDS011;66210;53.282;9.864;2023-05-10T00:03:43;6.22;;;3.08;;
77214;SDS011;66210;53.282;9.864;2023-05-10T00:06:10;5.35;;;2.70;;
77214;SDS011;66210;53.282;9.864;2023-05-10T00:08:37;5.68;;;2.80;;
77214;SDS011;66210;53.282;9.864;2023-05-10T00:11:04;4.07;;;2.90;;
77214;SDS011;66210;53.282;9.864;2023-05-10T00:13:30;6.65;;;3.05;;
77214;SDS011;66210;53.282;9.864;2023-05-10T00:15:57;4.70;;;3.10;;
77214;SDS011;66210;53.282;9.864;2023-05-10T00:18:24;6.05;;;2.92;;
77214;SDS011;66210;53.282;9.864;2023-05-10T00:20:51;4.00;;;2.70;;
77214;SDS011;66210;53.282;9.864;2023-05-10T00:23:17;6.35;;;3.13;;
77214;SDS011;66210;53.282;9.864;2023-05-10T00:25:44;5.20;;;2.70;;
77214;SDS011;66210;53.282;9.864;2023-05-10T00:28:11;4.60;;;3.10;;
77214;SDS011;66210;53.282;9.864;2023-05-10T00:30:37;10.80;;;2.90;;
77214;SDS011;66210;53.282;9.864;2023-05-10T00:33:04;8.75;;;3.13;;
77214;SDS011;66210;53.282;9.864;2023-05-10T00:35:31;6.97;;;3.00;;
77214;SDS011;66210;53.282;9.864;2023-05-10T00:37:58;8.48;;;2.80;;
77214;SDS011;66210;53.282;9.864;2023-05-10T00:40:24;3.78;;;2.65;;
77214;SDS011;66210;53.282;9.864;2023-05-10T00:42:51;5.95;;;3.00;;
77214;SDS011;66210;53.282;9.864;2023-05-10T00:45:18;4.88;;;2.80;;
77214;SDS011;66210;53.282;9.864;2023-05-10T00:47:45;3.53;;;2.70;;
77214;SDS011;66210;53.282;9.864;2023-05-10T00:50:12;4.75;;;3.25;;
77214;SDS011;66210;53.282;9.864;2023-05-10T00:52:41;3.25;;;2.53;;
77214;SDS011;66210;53.282;9.864;2023-05-10T00:55:09;4.50;;;2.90;;
77214;SDS011;66210;53.282;9.864;2023-05-10T00:57:38;6.10;;;2.60;;
77214;SDS011;66210;53.282;9.864;2023-05-10T01:00:05;5.45;;;3.38;;
77214;SDS011;66210;53.282;9.864;2023-05-10T01:02:34;5.78;;;3.30;;
77214;SDS011;66210;53.282;9.864;2023-05-10T01:05:02;6.47;;;3.40;;
77214;SDS011;66210;53.282;9.864;2023-05-10T01:07:30;4.35;;;2.88;;
77214;SDS011;66210;53.282;9.864;2023-05-10T01:09:56;6.88;;;3.22;;
77214;SDS011;66210;53.282;9.864;2023-05-10T01:12:24;4.68;;;2.80;;
77214;SDS011;66210;53.282;9.864;2023-05-10T01:14:51;5.40;;;3.28;;
77214;SDS011;66210;53.282;9.864;2023-05-10T01:17:18;4.30;;;2.95;;
77214;SDS011;66210;53.282;9.864;2023-05-10T01:19:47;5.20;;;3.10;;
77214;SDS011;66210;53.282;9.864;2023-05-10T01:25:03;5.50;;;3.30;;
77214;SDS011;66210;53.282;9.864;2023-05-10T01:39:10;6.60;;;3.30;;
77214;SDS011;66210;53.282;9.864;2023-05-10T01:41:48;6.18;;;3.22;;
77214;SDS011;66210;53.282;9.864;2023-05-10T01:44:34;6.18;;;3.20;;
77214;SDS011;66210;53.282;9.864;2023-05-10T01:47:23;5.57;;;3.30;;
77214;SDS011;66210;53.282;9.864;2023-05-10T01:50:19;7.03;;;3.60;;
77214;SDS011;66210;53.282;9.864;2023-05-10T01:52:51;7.43;;;3.70;;
77214;SDS011;66210;53.282;9.864;2023-05-10T01:55:21;4.90;;;3.33;;
77214;SDS011;66210;53.282;9.864;2023-05-10T01:57:56;5.95;;;3.20;;
77214;SDS011;66210;53.282;9.864;2023-05-10T02:00:28;6.03;;;3.58;;
77214;SDS011;66210;53.282;9.864;2023-05-10T02:02:56;7.82;;;3.22;;
77214;SDS011;66210;53.282;9.864;2023-05-10T02:05:23;3.70;;;2.70;;
77214;SDS011;66210;53.282;9.864;2023-05-10T02:07:51;6.00;;;3.13;;
77214;SDS011;66210;53.282;9.864;2023-05-10T02:10:18;6.20;;;3.28;;
77214;SDS011;66210;53.282;9.864;2023-05-10T02:12:47;4.10;;;3.25;;
77214;SDS011;66210;53.282;9.864;2023-05-10T02:15:17;5.35;;;3.67;;
77214;SDS011;66210;53.282;9.864;2023-05-10T02:17:48;6.53;;;3.08;;
77214;SDS011;66210;53.282;9.864;2023-05-10T02:20:16;8.70;;;3.53;;
77214;SDS011;66210;53.282;9.864;2023-05-10T02:22:46;6.28;;;3.58;;
77214;SDS011;66210;53.282;9.864;2023-05-10T02:25:15;5.18;;;3.47;;
77214;SDS011;66210;53.282;9.864;2023-05-10T02:27:45;5.20;;;3.75;;
77214;SDS011;66210;53.282;9.864;2023-05-10T02:30:14;4.57;;;3.45;;
77214;SDS011;66210;53.282;9.864;2023-05-10T02:32:42;5.05;;;3.28;;
77214;SDS011;66210;53.282;9.864;2023-05-10T02:35:10;4.70;;;3.45;;
77214;SDS011;66210;53.282;9.864;2023-05-10T02:37:37;4.85;;;3.05;;
77214;SDS011;66210;53.282;9.864;2023-05-10T02:40:06;5.30;;;3.63;;
77214;SDS011;66210;53.282;9.864;2023-05-10T02:42:35;5.13;;;3.10;;
77214;SDS011;66210;53.282;9.864;2023-05-10T02:47:34;4.22;;;2.92;;
77214;SDS011;66210;53.282;9.864;2023-05-10T02:50:01;5.22;;;3.10;;
77214;SDS011;66210;53.282;9.864;2023-05-10T02:52:29;4.82;;;3.10;;
77214;SDS011;66210;53.282;9.864;2023-05-10T02:55:03;5.53;;;3.03;;
77214;SDS011;66210;53.282;9.864;2023-05-10T02:57:33;6.38;;;3.25;;
77214;SDS011;66210;53.282;9.864;2023-05-10T03:00:00;4.72;;;3.03;;
77214;SDS011;66210;53.282;9.864;2023-05-10T03:02:31;6.10;;;3.40;;
77214;SDS011;66210;53.282;9.864;2023-05-10T03:04:58;5.75;;;3.00;;
77214;SDS011;66210;53.282;9.864;2023-05-10T03:07:25;4.13;;;2.80;;
77214;SDS011;66210;53.282;9.864;2023-05-10T03:09:52;4.63;;;3.67;;
77214;SDS011;66210;53.282;9.864;2023-05-10T03:12:23;8.43;;;2.67;;
77214;SDS011;66210;53.282;9.864;2023-05-10T03:15:01;4.93;;;2.97;;
77214;SDS011;66210;53.282;9.864;2023-05-10T03:17:36;4.68;;;3.30;;
77214;SDS011;66210;53.282;9.864;2023-05-10T03:20:16;4.50;;;3.17;;
77214;SDS011;66210;53.282;9.864;2023-05-10T03:25:53;4.80;;;3.58;;
77214;SDS011;66210;53.282;9.864;2023-05-10T03:28:20;4.00;;;2.88;;
77214;SDS011;66210;53.282;9.864;2023-05-10T03:30:48;4.85;;;3.22;;
77214;SDS011;66210;53.282;9.864;2023-05-10T03:33:16;6.00;;;3.20;;
77214;SDS011;66210;53.282;9.864;2023-05-10T03:35:43;6.55;;;4.03;;
77214;SDS011;66210;53.282;9.864;2023-05-10T03:38:12;3.72;;;3.10;;
77214;SDS011;66210;53.282;9.864;2023-05-10T03:40:40;4.60;;;3.15;;
77214;SDS011;66210;53.282;9.864;2023-05-10T03:43:06;4.65;;;2.85;;
77214;SDS011;66210;53.282;9.864;2023-05-10T03:45:33;6.38;;;2.92;;
77214;SDS011;66210;53.282;9.864;2023-05-10T03:48:00;4.75;;;3.42;;
77214;SDS011;66210;53.282;9.864;2023-05-10T03:50:27;5.72;;;3.50;;
77214;SDS011;66210;53.282;9.864;2023-05-10T03:52:53;9.18;;;3.08;;
77214;SDS011;66210;53.282;9.864;2023-05-10T03:55:20;6.93;;;3.15;;
77214;SDS011;66210;53.282;9.864;2023-05-10T03:57:47;6.53;;;4.00;;
77214;SDS011;66210;53.282;9.864;2023-05-10T04:00:15;5.50;;;3.67;;
77214;SDS011;66210;53.282;9.864;2023-05-10T04:02:43;6.82;;;3.40;;
77214;SDS011;66210;53.282;9.864;2023-05-10T04:05:11;9.90;;;3.75;;
77214;SDS011;66210;53.282;9.864;2023-05-10T04:07:39;5.88;;;3.85;;
77214;SDS011;66210;53.282;9.864;2023-05-10T04:10:06;6.95;;;3.80;;
77214;SDS011;66210;53.282;9.864;2023-05-10T04:12:33;7.75;;;3.28;;
77214;SDS011;66210;53.282;9.864;2023-05-10T04:15:00;5.00;;;3.40;;
77214;SDS011;66210;53.282;9.864;2023-05-10T04:17:26;4.90;;;3.80;;
77214;SDS011;66210;53.282;9.864;2023-05-10T04:19:53;7.97;;;3.92;;
77214;SDS011;66210;53.282;9.864;2023-05-10T04:22:21;6.82;;;3.30;;
77214;SDS011;66210;53.282;9.864;2023-05-10T04:24:47;4.63;;;3.55;;
77214;SDS011;66210;53.282;9.864;2023-05-10T04:27:14;8.65;;;3.85;;
77214;SDS011;66210;53.282;9.864;2023-05-10T04:29:41;5.38;;;3.45;;
77214;SDS011;66210;53.282;9.864;2023-05-10T04:32:08;5.32;;;3.63;;
77214;SDS011;66210;53.282;9.864;2023-05-10T04:34:36;5.47;;;3.53;;
77214;SDS011;66210;53.282;9.864;2023-05-10T04:37:04;6.82;;;3.70;;
77214;SDS011;66210;53.282;9.864;2023-05-10T04:39:30;5.55;;;3.83;;
77214;SDS011;66210;53.282;9.864;2023-05-10T04:41:57;6.78;;;3.83;;
77214;SDS011;66210;53.282;9.864;2023-05-10T04:44:24;4.90;;;3.83;;
77214;SDS011;66210;53.282;9.864;2023-05-10T04:46:50;5.45;;;3.70;;
77214;SDS011;66210;53.282;9.864;2023-05-10T04:49:17;4.25;;;3.30;;
77214;SDS011;66210;53.282;9.864;2023-05-10T04:51:44;5.10;;;4.13;;
77214;SDS011;66210;53.282;9.864;2023-05-10T04:54:11;9.57;;;3.88;;
77214;SDS011;66210;53.282;9.864;2023-05-10T04:56:37;4.85;;;3.83;;
77214;SDS011;66210;53.282;9.864;2023-05-10T04:59:04;6.93;;;3.78;;
77214;SDS011;66210;53.282;9.864;2023-05-10T05:01:31;8.07;;;4.07;;
77214;SDS011;66210;53.282;9.864;2023-05-10T05:03:58;9.63;;;3.95;;
77214;SDS011;66210;53.282;9.864;2023-05-10T05:06:25;8.35;;;3.40;;
77214;SDS011;66210;53.282;9.864;2023-05-10T05:08:53;6.45;;;3.65;;
77214;SDS011;66210;53.282;9.864;2023-05-10T05:11:20;9.57;;;4.00;;
77214;SDS011;66210;53.282;9.864;2023-05-10T05:13:47;11.50;;;3.92;;
77214;SDS011;66210;53.282;9.864;2023-05-10T05:16:26;6.18;;;3.78;;
77214;SDS011;66210;53.282;9.864;2023-05-10T05:18:53;6.68;;;4.07;;
77214;SDS011;66210;53.282;9.864;2023-05-10T05:21:19;7.63;;;3.88;;
77214;SDS011;66210;53.282;9.864;2023-05-10T05:23:46;6.18;;;4.10;;
77214;SDS011;66210;53.282;9.864;2023-05-10T05:26:12;7.28;;;3.83;;
77214;SDS011;66210;53.282;9.864;2023-05-10T05:28:39;8.32;;;3.80;;
77214;SDS011;66210;53.282;9.864;2023-05-10T05:31:06;6.95;;;3.78;;
77214;SDS011;66210;53.282;9.864;2023-05-10T05:33:34;6.65;;;3.92;;
77214;SDS011;66210;53.282;9.864;2023-05-10T05:36:01;4.32;;;3.30;;
77214;SDS011;66210;53.282;9.864;2023-05-10T05:38:29;9.43;;;3.72;;
77214;SDS011;66210;53.282;9.864;2023-05-10T05:40:55;6.85;;;3.72;;
77214;SDS011;66210;53.282;9.864;2023-05-10T05:43:22;10.07;;;3.63;;
77214;SDS011;66210;53.282;9.864;2023-05-10T05:45:48;7.35;;;3.47;;
77214;SDS011;66210;53.282;9.864;2023-05-10T05:48:15;5.80;;;3.60;;
77214;SDS011;66210;53.282;9.864;2023-05-10T05:50:42;4.28;;;3.35;;
77214;SDS011;66210;53.282;9.864;2023-05-10T05:53:08;6.97;;;3.70;;
77214;SDS011;66210;53.282;9.864;2023-05-10T05:55:35;8.55;;;3.88;;
77214;SDS011;66210;53.282;9.864;2023-05-10T05:58:02;6.50;;;3.70;;
77214;SDS011;66210;53.282;9.864;2023-05-10T06:00:28;5.10;;;3.28;;
77214;SDS011;66210;53.282;9.864;2023-05-10T06:02:55;10.05;;;4.05;;
77214;SDS011;66210;53.282;9.864;2023-05-10T06:05:22;13.52;;;4.22;;
77214;SDS011;66210;53.282;9.864;2023-05-10T06:07:48;6.95;;;3.97;;
77214;SDS011;66210;53.282;9.864;2023-05-10T06:10:15;5.65;;;3.35;;
77214;SDS011;66210;53.282;9.864;2023-05-10T06:12:41;8.57;;;3.92;;
77214;SDS011;66210;53.282;9.864;2023-05-10T06:15:08;10.10;;;3.70;;
77214;SDS011;66210;53.282;9.864;2023-05-10T06:17:35;4.65;;;3.70;;
77214;SDS011;66210;53.282;9.864;2023-05-10T06:20:01;7.78;;;3.95;;
77214;SDS011;66210;53.282;9.864;2023-05-10T06:22:28;9.27;;;3.72;;
77214;SDS011;66210;53.282;9.864;2023-05-10T06:24:55;7.68;;;3.60;;
77214;SDS011;66210;53.282;9.864;2023-05-10T06:27:21;5.85;;;3.60;;
77214;SDS011;66210;53.282;9.864;2023-05-10T06:29:48;7.55;;;4.00;;
77214;SDS011;66210;53.282;9.864;2023-05-10T06:32:19;5.43;;;3.58;;
77214;SDS011;66210;53.282;9.864;2023-05-10T06:34:46;6.85;;;3.90;;
77214;SDS011;66210;53.282;9.864;2023-05-10T06:37:12;7.72;;;3.85;;
77214;SDS011;66210;53.282;9.864;2023-05-10T06:39:39;5.85;;;3.72;;
77214;SDS011;66210;53.282;9.864;2023-05-10T06:42:05;7.53;;;4.40;;
77214;SDS011;66210;53.282;9.864;2023-05-10T06:44:32;12.38;;;3.92;;
77214;SDS011;66210;53.282;9.864;2023-05-10T06:46:58;6.93;;;3.53;;
77214;SDS011;66210;53.282;9.864;2023-05-10T06:49:25;10.43;;;3.60;;
77214;SDS011;66210;53.282;9.864;2023-05-10T06:51:52;5.28;;;3.83;;
77214;SDS011;66210;53.282;9.864;2023-05-10T06:54:18;4.45;;;3.40;;
77214;SDS011;66210;53.282;9.864;2023-05-10T06:56:45;6.57;;;3.72;;
77214;SDS011;66210;53.282;9.864;2023-05-10T06:59:11;6.20;;;3.53;;
77214;SDS011;66210;53.282;9.864;2023-05-10T07:01:39;5.63;;;3.67;;
77214;SDS011;66210;53.282;9.864;2023-05-10T07:04:06;5.38;;;3.30;;
77214;SDS011;66210;53.282;9.864;2023-05-10T07:06:33;11.57;;;3.80;;
77214;SDS011;66210;53.282;9.864;2023-05-10T07:09:00;5.72;;;3.33;;
77214;SDS011;66210;53.282;9.864;2023-05-10T07:11:26;4.80;;;3.58;;
77214;SDS011;66210;53.282;9.864;2023-05-10T07:13:53;7.85;;;3.92;;
77214;SDS011;66210;53.282;9.864;2023-05-10T07:16:19;8.90;;;3.55;;
77214;SDS011;66210;53.282;9.864;2023-05-10T07:18:47;8.18;;;3.47;;
77214;SDS011;66210;53.282;9.864;2023-05-10T07:21:14;5.50;;;3.38;;
77214;SDS011;66210;53.282;9.864;2023-05-10T07:23:41;6.63;;;3.60;;
77214;SDS011;66210;53.282;9.864;2023-05-10T07:26:10;5.93;;;3.92;;
77214;SDS011;66210;53.282;9.864;2023-05-10T07:28:37;5.82;;;3.53;;
77214;SDS011;66210;53.282;9.864;2023-05-10T07:31:04;10.40;;;4.05;;
77214;SDS011;66210;53.282;9.864;2023-05-10T07:33:31;10.95;;;3.90;;
77214;SDS011;66210;53.282;9.864;2023-05-10T07:35:58;10.52;;;5.32;;
77214;SDS011;66210;53.282;9.864;2023-05-10T07:38:24;5.70;;;3.70;;
77214;SDS011;66210;53.282;9.864;2023-05-10T07:40:51;7.07;;;3.78;;
77214;SDS011;66210;53.282;9.864;2023-05-10T07:43:18;8.60;;;3.75;;
77214;SDS011;66210;53.282;9.864;2023-05-10T07:45:44;7.60;;;3.97;;
77214;SDS011;66210;53.282;9.864;2023-05-10T07:48:11;5.97;;;3.72;;
77214;SDS011;66210;53.282;9.864;2023-05-10T07:50:38;6.90;;;3.67;;
77214;SDS011;66210;53.282;9.864;2023-05-10T07:53:04;8.88;;;3.42;;
77214;SDS011;66210;53.282;9.864;2023-05-10T07:55:31;5.72;;;4.00;;
77214;SDS011;66210;53.282;9.864;2023-05-10T07:57:58;7.32;;;3.85;;
77214;SDS011;66210;53.282;9.864;2023-05-10T08:00:51;7.35;;;3.95;;
77214;SDS011;66210;53.282;9.864;2023-05-10T08:03:18;6.50;;;3.50;;
77214;SDS011;66210;53.282;9.864;2023-05-10T08:05:45;6.28;;;3.90;;
77214;SDS011;66210;53.282;9.864;2023-05-10T08:08:11;5.20;;;3.60;;
77214;SDS011;66210;53.282;9.864;2023-05-10T08:10:38;6.55;;;4.13;;
77214;SDS011;66210;53.282;9.864;2023-05-10T08:13:04;9.02;;;3.50;;
77214;SDS011;66210;53.282;9.864;2023-05-10T08:15:31;5.03;;;3.80;;
77214;SDS011;66210;53.282;9.864;2023-05-10T08:17:57;7.50;;;3.53;;
77214;SDS011;66210;53.282;9.864;2023-05-10T08:20:24;6.68;;;3.35;;
77214;SDS011;66210;53.282;9.864;2023-05-10T08:22:51;10.63;;;4.00;;
77214;SDS011;66210;53.282;9.864;2023-05-10T08:25:17;6.80;;;3.97;;
77214;SDS011;66210;53.282;9.864;2023-05-10T08:27:44;9.27;;;3.92;;
77214;SDS011;66210;53.282;9.864;2023-05-10T08:30:11;6.40;;;4.10;;
77214;SDS011;66210;53.282;9.864;2023-05-10T08:32:38;7.45;;;4.03;;
77214;SDS011;66210;53.282;9.864;2023-05-10T08:35:05;6.03;;;3.75;;
77214;SDS011;66210;53.282;9.864;2023-05-10T08:37:32;8.35;;;3.88;;
77214;SDS011;66210;53.282;9.864;2023-05-10T08:39:59;6.70;;;3.65;;
77214;SDS011;66210;53.282;9.864;2023-05-10T08:42:25;6.07;;;4.00;;
77214;SDS011;66210;53.282;9.864;2023-05-10T08:44:57;8.68;;;4.13;;
77214;SDS011;66210;53.282;9.864;2023-05-10T08:47:24;7.40;;;3.97;;
77214;SDS011;66210;53.282;9.864;2023-05-10T08:49:51;7.35;;;4.03;;
77214;SDS011;66210;53.282;9.864;2023-05-10T08:52:18;9.30;;;4.47;;
77214;SDS011;66210;53.282;9.864;2023-05-10T08:54:46;7.85;;;4.72;;
77214;SDS011;66210;53.282;9.864;2023-05-10T08:57:13;4.93;;;4.20;;
77214;SDS011;66210;53.282;9.864;2023-05-10T08:59:39;5.35;;;4.55;;
77214;SDS011;66210;53.282;9.864;2023-05-10T09:02:06;7.60;;;4.68;;
77214;SDS011;66210;53.282;9.864;2023-05-10T09:04:37;6.22;;;4.13;;
77214;SDS011;66210;53.282;9.864;2023-05-10T09:07:04;7.00;;;4.03;;
77214;SDS011;66210;53.282;9.864;2023-05-10T09:09:31;8.13;;;4.68;;
77214;SDS011;66210;53.282;9.864;2023-05-10T09:11:57;6.60;;;4.82;;
77214;SDS011;66210;53.282;9.864;2023-05-10T09:14:24;6.97;;;4.90;;
77214;SDS011;66210;53.282;9.864;2023-05-10T09:16:51;4.90;;;4.13;;
77214;SDS011;66210;53.282;9.864;2023-05-10T09:19:20;6.70;;;4.72;;
77214;SDS011;66210;53.282;9.864;2023-05-10T09:21:46;11.35;;;5.50;;
77214;SDS011;66210;53.282;9.864;2023-05-10T09:24:13;11.82;;;5.13;;
77214;SDS011;66210;53.282;9.864;2023-05-10T09:26:45;20.25;;;5.70;;
77214;SDS011;66210;53.282;9.864;2023-05-10T09:29:15;8.85;;;5.50;;
77214;SDS011;66210;53.282;9.864;2023-05-10T09:31:50;9.65;;;5.50;;
77214;SDS011;66210;53.282;9.864;2023-05-10T09:34:19;11.30;;;5.88;;
77214;SDS011;66210;53.282;9.864;2023-05-10T09:36:55;6.90;;;5.40;;
77214;SDS011;66210;53.282;9.864;2023-05-10T09:39:30;8.05;;;6.25;;
77214;SDS011;66210;53.282;9.864;2023-05-10T09:42:01;8.93;;;5.57;;
77214;SDS011;66210;53.282;9.864;2023-05-10T09:44:32;6.38;;;5.10;;
77214;SDS011;66210;53.282;9.864;2023-05-10T09:47:00;9.63;;;6.18;;
77214;SDS011;66210;53.282;9.864;2023-05-10T09:49:28;7.15;;;5.80;;
77214;SDS011;66210;53.282;9.864;2023-05-10T09:52:01;8.10;;;6.50;;
77214;SDS011;66210;53.282;9.864;2023-05-10T09:54:29;6.85;;;5.32;;
77214;SDS011;66210;53.282;9.864;2023-05-10T09:56:57;7.40;;;5.28;;
77214;SDS011;66210;53.282;9.864;2023-05-10T09:59:26;11.18;;;6.45;;
77214;SDS011;66210;53.282;9.864;2023-05-10T10:01:57;8.75;;;5.95;;
77214;SDS011;66210;53.282;9.864;2023-05-10T10:04:26;9.85;;;6.05;;
77214;SDS011;66210;53.282;9.864;2023-05-10T10:07:00;9.90;;;6.10;;
77214;SDS011;66210;53.282;9.864;2023-05-10T10:09:31;8.35;;;5.57;;
77214;SDS011;66210;53.282;9.864;2023-05-10T10:11:59;9.07;;;5.88;;
77214;SDS011;66210;53.282;9.864;2023-05-10T10:14:27;9.23;;;6.28;;
77214;SDS011;66210;53.282;9.864;2023-05-10T10:16:55;9.65;;;5.97;;
77214;SDS011;66210;53.282;9.864;2023-05-10T10:19:34;11.98;;;6.32;;
77214;SDS011;66210;53.282;9.864;2023-05-10T10:22:02;9.25;;;6.53;;
77214;SDS011;66210;53.282;9.864;2023-05-10T10:24:29;8.98;;;7.25;;
77214;SDS011;66210;53.282;9.864;2023-05-10T10:26:57;7.68;;;6.70;;
77214;SDS011;66210;53.282;9.864;2023-05-10T10:29:34;10.13;;;6.65;;
77214;SDS011;66210;53.282;9.864;2023-05-10T10:32:09;12.48;;;7.38;;
77214;SDS011;66210;53.282;9.864;2023-05-10T10:34:45;11.68;;;7.50;;
77214;SDS011;66210;53.282;9.864;2023-05-10T10:37:13;12.57;;;8.02;;
77214;SDS011;66210;53.282;9.864;2023-05-10T10:39:39;9.88;;;8.10;;
77214;SDS011;66210;53.282;9.864;2023-05-10T10:42:06;13.75;;;8.45;;
77214;SDS011;66210;53.282;9.864;2023-05-10T10:44:34;12.45;;;7.68;;
77214;SDS011;66210;53.282;9.864;2023-05-10T10:47:05;11.02;;;8.15;;
77214;SDS011;66210;53.282;9.864;2023-05-10T10:49:42;9.52;;;7.63;;
77214;SDS011;66210;53.282;9.864;2023-05-10T10:52:23;10.60;;;7.30;;
77214;SDS011;66210;53.282;9.864;2023-05-10T10:55:01;9.70;;;7.78;;
77214;SDS011;66210;53.282;9.864;2023-05-10T10:57:31;8.52;;;6.63;;
77214;SDS011;66210;53.282;9.864;2023-05-10T11:00:19;12.68;;;7.57;;
77214;SDS011;66210;53.282;9.864;2023-05-10T11:02:49;11.70;;;8.10;;
77214;SDS011;66210;53.282;9.864;2023-05-10T11:08:12;11.43;;;8.55;;
77214;SDS011;66210;53.282;9.864;2023-05-10T11:10:49;10.85;;;7.80;;
77214;SDS011;66210;53.282;9.864;2023-05-10T11:13:29;12.60;;;8.88;;
77214;SDS011;66210;53.282;9.864;2023-05-10T11:16:24;12.25;;;8.85;;
77214;SDS011;66210;53.282;9.864;2023-05-10T11:18:58;10.75;;;8.25;;
77214;SDS011;66210;53.282;9.864;2023-05-10T11:21:26;11.48;;;8.95;;
77214;SDS011;66210;53.282;9.864;2023-05-10T11:23:54;13.00;;;8.50;;
77214;SDS011;66210;53.282;9.864;2023-05-10T11:26:23;11.52;;;8.20;;
77214;SDS011;66210;53.282;9.864;2023-05-10T11:31:23;10.65;;;8.25;;
77214;SDS011;66210;53.282;9.864;2023-05-10T11:33:57;12.40;;;8.45;;
77214;SDS011;66210;53.282;9.864;2023-05-10T11:36:25;10.95;;;7.72;;
77214;SDS011;66210;53.282;9.864;2023-05-10T11:38:54;13.35;;;7.93;;
77214;SDS011;66210;53.282;9.864;2023-05-10T11:41:22;9.30;;;7.53;;
77214;SDS011;66210;53.282;9.864;2023-05-10T11:43:51;10.05;;;7.95;;
77214;SDS011;66210;53.282;9.864;2023-05-10T11:46:20;13.05;;;7.72;;
77214;SDS011;66210;53.282;9.864;2023-05-10T11:48:49;10.15;;;8.20;;
77214;SDS011;66210;53.282;9.864;2023-05-10T11:51:21;9.75;;;7.93;;
77214;SDS011;66210;53.282;9.864;2023-05-10T11:53:49;9.63;;;6.75;;
77214;SDS011;66210;53.282;9.864;2023-05-10T11:56:16;10.35;;;8.05;;
77214;SDS011;66210;53.282;9.864;2023-05-10T11:58:43;8.25;;;6.57;;
77214;SDS011;66210;53.282;9.864;2023-05-10T12:01:10;9.48;;;7.47;;
77214;SDS011;66210;53.282;9.864;2023-05-10T12:03:37;11.88;;;7.03;;
77214;SDS011;66210;53.282;9.864;2023-05-10T12:06:04;9.48;;;6.72;;
77214;SDS011;66210;53.282;9.864;2023-05-10T12:08:31;8.68;;;6.85;;
77214;SDS011;66210;53.282;9.864;2023-05-10T12:11:05;8.68;;;7.47;;
77214;SDS011;66210;53.282;9.864;2023-05-10T12:13:37;10.32;;;7.03;;
77214;SDS011;66210;53.282;9.864;2023-05-10T12:16:15;9.80;;;6.30;;
77214;SDS011;66210;53.282;9.864;2023-05-10T12:18:43;9.93;;;7.40;;
77214;SDS011;66210;53.282;9.864;2023-05-10T12:21:11;9.68;;;7.38;;
77214;SDS011;66210;53.282;9.864;2023-05-10T12:23:38;10.45;;;7.97;;
77214;SDS011;66210;53.282;9.864;2023-05-10T12:26:05;8.43;;;6.85;;
77214;SDS011;66210;53.282;9.864;2023-05-10T12:28:33;9.00;;;7.40;;
77214;SDS011;66210;53.282;9.864;2023-05-10T12:30:59;9.57;;;7.55;;
77214;SDS011;66210;53.282;9.864;2023-05-10T12:33:26;11.65;;;7.57;;
77214;SDS011;66210;53.282;9.864;2023-05-10T12:35:53;10.30;;;7.20;;
77214;SDS011;66210;53.282;9.864;2023-05-10T12:38:26;8.60;;;6.97;;
77214;SDS011;66210;53.282;9.864;2023-05-10T12:40:59;11.25;;;6.50;;
77214;SDS011;66210;53.282;9.864;2023-05-10T12:43:27;11.60;;;6.90;;
77214;SDS011;66210;53.282;9.864;2023-05-10T12:45:54;7.28;;;6.32;;
77214;SDS011;66210;53.282;9.864;2023-05-10T12:48:21;7.35;;;6.07;;
77214;SDS011;66210;53.282;9.864;2023-05-10T12:50:47;9.00;;;6.07;;
77214;SDS011;66210;53.282;9.864;2023-05-10T12:53:14;8.50;;;6.45;;
77214;SDS011;66210;53.282;9.864;2023-05-10T12:58:10;6.63;;;5.15;;
77214;SDS011;66210;53.282;9.864;2023-05-10T13:03:12;7.28;;;6.13;;
77214;SDS011;66210;53.282;9.864;2023-05-10T13:05:39;6.43;;;5.65;;
77214;SDS011;66210;53.282;9.864;2023-05-10T13:08:05;6.40;;;5.47;;
77214;SDS011;66210;53.282;9.864;2023-05-10T13:10:32;7.07;;;5.63;;
77214;SDS011;66210;53.282;9.864;2023-05-10T13:12:58;6.53;;;4.78;;
77214;SDS011;66210;53.282;9.864;2023-05-10T13:15:25;4.88;;;4.38;;
77214;SDS011;66210;53.282;9.864;2023-05-10T13:17:53;6.85;;;5.10;;
77214;SDS011;66210;53.282;9.864;2023-05-10T13:20:20;5.90;;;5.30;;
77214;SDS011;66210;53.282;9.864;2023-05-10T13:22:47;6.72;;;4.35;;
77214;SDS011;66210;53.282;9.864;2023-05-10T13:25:15;6.18;;;4.88;;
77214;SDS011;66210;53.282;9.864;2023-05-10T13:27:42;6.72;;;5.03;;
77214;SDS011;66210;53.282;9.864;2023-05-10T13:30:09;5.88;;;4.47;;
77214;SDS011;66210;53.282;9.864;2023-05-10T13:32:35;5.93;;;4.30;;
77214;SDS011;66210;53.282;9.864;2023-05-10T13:35:02;6.70;;;5.10;;
77214;SDS011;66210;53.282;9.864;2023-05-10T13:37:29;8.00;;;4.85;;
77214;SDS011;66210;53.282;9.864;2023-05-10T13:39:57;5.80;;;4.63;;
77214;SDS011;66210;53.282;9.864;2023-05-10T13:42:23;5.82;;;4.93;;
77214;SDS011;66210;53.282;9.864;2023-05-10T13:44:50;5.22;;;4.30;;
77214;SDS011;66210;53.282;9.864;2023-05-10T13:47:17;5.32;;;4.32;;
77214;SDS011;66210;53.282;9.864;2023-05-10T13:49:44;5.50;;;4.35;;
77214;SDS011;66210;53.282;9.864;2023-05-10T13:52:11;6.20;;;4.40;;
77214;SDS011;66210;53.282;9.864;2023-05-10T13:54:38;6.93;;;4.50;;
77214;SDS011;66210;53.282;9.864;2023-05-10T13:57:05;5.50;;;4.45;;
77214;SDS011;66210;53.282;9.864;2023-05-10T13:59:32;6.22;;;4.22;;
77214;SDS011;66210;53.282;9.864;2023-05-10T14:01:59;6.03;;;4.05;;
77214;SDS011;66210;53.282;9.864;2023-05-10T14:06:56;4.28;;;3.78;;
77214;SDS011;66210;53.282;9.864;2023-05-10T14:09:22;5.65;;;3.83;;
77214;SDS011;66210;53.282;9.864;2023-05-10T14:11:49;5.30;;;4.07;;
77214;SDS011;66210;53.282;9.864;2023-05-10T14:14:16;5.03;;;4.05;;
77214;SDS011;66210;53.282;9.864;2023-05-10T14:16:43;5.15;;;3.38;;
77214;SDS011;66210;53.282;9.864;2023-05-10T14:19:10;4.60;;;3.70;;
77214;SDS011;66210;53.282;9.864;2023-05-10T14:21:38;4.43;;;3.47;;
77214;SDS011;66210;53.282;9.864;2023-05-10T14:24:05;3.72;;;3.03;;
77214;SDS011;66210;53.282;9.864;2023-05-10T14:26:33;5.95;;;3.92;;
77214;SDS011;66210;53.282;9.864;2023-05-10T14:29:02;3.80;;;2.85;;
77214;SDS011;66210;53.282;9.864;2023-05-10T14:31:29;5.20;;;3.25;;
77214;SDS011;66210;53.282;9.864;2023-05-10T14:33:56;4.82;;;3.22;;
77214;SDS011;66210;53.282;9.864;2023-05-10T14:36:23;4.10;;;2.92;;
77214;SDS011;66210;53.282;9.864;2023-05-10T14:38:50;4.88;;;3.15;;
77214;SDS011;66210;53.282;9.864;2023-05-10T14:41:18;4.03;;;2.88;;
77214;SDS011;66210;53.282;9.864;2023-05-10T14:43:45;3.70;;;2.88;;
77214;SDS011;66210;53.282;9.864;2023-05-10T14:46:12;4.53;;;3.13;;
77214;SDS011;66210;53.282;9.864;2023-05-10T14:48:38;4.20;;;3.15;;
77214;SDS011;66210;53.282;9.864;2023-05-10T14:51:05;5.80;;;3.40;;
77214;SDS011;66210;53.282;9.864;2023-05-10T14:53:32;4.63;;;3.40;;
77214;SDS011;66210;53.282;9.864;2023-05-10T14:55:59;5.95;;;3.17;;
77214;SDS011;66210;53.282;9.864;2023-05-10T14:58:27;4.60;;;3.38;;
77214;SDS011;66210;53.282;9.864;2023-05-10T15:00:54;4.10;;;2.83;;
77214;SDS011;66210;53.282;9.864;2023-05-10T15:03:20;3.88;;;3.47;;
77214;SDS011;66210;53.282;9.864;2023-05-10T15:05:48;5.63;;;4.07;;
77214;SDS011;66210;53.282;9.864;2023-05-10T15:08:14;4.72;;;3.33;;
77214;SDS011;66210;53.282;9.864;2023-05-10T15:10:41;4.80;;;3.63;;
77214;SDS011;66210;53.282;9.864;2023-05-10T15:13:07;4.53;;;3.45;;
77214;SDS011;66210;53.282;9.864;2023-05-10T15:15:34;5.75;;;3.78;;
77214;SDS011;66210;53.282;9.864;2023-05-10T15:18:00;5.30;;;3.25;;
77214;SDS011;66210;53.282;9.864;2023-05-10T15:20:27;4.82;;;3.80;;
77214;SDS011;66210;53.282;9.864;2023-05-10T15:22:54;4.93;;;3.45;;
77214;SDS011;66210;53.282;9.864;2023-05-10T15:25:20;5.90;;;3.70;;